This is the latest recevied weather packets stored in our database for station/object AE7MK-13. If no packets are shown the sender has not sent any weather packets the latest 10 day(s).
| Time | Temp. | Humidity | Pressure | Rain* | Wind** | Luminosity | Snow |
|---|---|---|---|---|---|---|---|
| 1777884603 | 12.78° C | 46% | 1012.7 hPa | 0 mm | - | - | - |
| 1777883403 | 12.78° C | 46% | 1012.8 hPa | 0 mm | - | - | - |
| 1777882934 | 13.33° C | 46% | 1012.7 hPa | 0 mm | - | - | - |
| 1777881603 | 12.78° C | 47% | 1012.9 hPa | 0 mm | - | - | - |
| 1777879333 | 13.89° C | 45% | 1012.7 hPa | 0 mm | - | - | - |
| 1777875733 | 16.11° C | 41% | 1012.8 hPa | 0 mm | - | - | - |
| 1777872732 | 17.22° C | 39% | 1013 hPa | 0 mm | - | - | - |
| 1777867203 | 14.44° C | 47% | 1013.2 hPa | 0 mm | - | - | - |
| 1777864803 | 18.33° C | 37% | 1012.9 hPa | 0 mm | - | - | - |
| 1777864203 | 18.89° C | 35% | 1012.9 hPa | 0 mm | - | - | - |
| 1777863003 | 21.11° C | 31% | 1012.8 hPa | 0 mm | - | - | - |
| 1777861333 | 22.22° C | 29% | 1012.7 hPa | 0 mm | - | - | - |
| 1777860733 | 22.22° C | 28% | 1012.9 hPa | 0 mm | - | - | - |
| 1777854133 | 22.78° C | 26% | 1013.6 hPa | 0 mm | - | - | - |
| 1777851003 | 22.78° C | 24% | 1014.2 hPa | 0 mm | - | - | - |
| 1777844534 | 22.22° C | 24% | 1015.6 hPa | 0 mm | - | - | - |
| 1777843203 | 22.22° C | 29% | 1015.7 hPa | 0 mm | - | - | - |
| 1777841403 | 21.67° C | 26% | 1016.1 hPa | 0 mm | - | - | - |
| 1777840934 | 21.67° C | 24% | 1016.3 hPa | 0 mm | - | - | - |
| 1777840203 | 21.11° C | 26% | 1016.4 hPa | 0 mm | - | - | - |
| 1777836133 | 20.56° C | 27% | 1017 hPa | 0 mm | - | - | - |
| 1777830003 | 20° C | 24% | 1017.6 hPa | 0 mm | - | - | - |
| 1777827003 | 20° C | 26% | 1017.7 hPa | 0 mm | - | - | - |
| 1777824733 | 19.44° C | 29% | 1017.9 hPa | 0 mm | - | - | - |
| 1777818003 | 15.56° C | 43% | 1017.9 hPa | 0 mm | - | - | - |
* Rain latest hour (hover to see other rain measurements)
** Current wind speed in m/s (hover to see current wind gust speed)